createdAt,value
2017-01-27T00:00:12.307Z,734.77
2017-01-27T00:01:12.289Z,734.74
2017-01-27T00:02:12.268Z,734.79
2017-01-27T00:03:12.249Z,734.77
2017-01-27T00:04:12.236Z,734.74
2017-01-27T00:05:12.216Z,734.74
2017-01-27T00:06:12.199Z,734.76
2017-01-27T00:07:12.183Z,734.82
2017-01-27T00:08:12.162Z,734.75
2017-01-27T00:09:12.147Z,734.79
2017-01-27T00:10:12.129Z,734.77
2017-01-27T00:11:12.113Z,734.82
2017-01-27T00:12:12.090Z,734.77
2017-01-27T00:13:12.075Z,734.74
2017-01-27T00:14:12.078Z,734.71
2017-01-27T00:15:12.039Z,734.7
2017-01-27T00:16:12.024Z,734.77
2017-01-27T00:17:12.002Z,734.8
2017-01-27T00:18:11.991Z,734.72
2017-01-27T00:19:11.969Z,734.75
2017-01-27T00:20:11.953Z,734.74
2017-01-27T00:21:11.931Z,734.75
2017-01-27T00:22:11.918Z,734.81
2017-01-27T00:23:11.900Z,734.8
2017-01-27T00:24:11.882Z,734.82
2017-01-27T00:25:11.860Z,734.8
2017-01-27T00:26:11.845Z,734.81
2017-01-27T00:27:11.826Z,734.76
2017-01-27T00:28:11.808Z,734.76
2017-01-27T00:29:11.793Z,734.78
2017-01-27T00:30:11.775Z,734.78
2017-01-27T00:31:11.760Z,734.76
2017-01-27T00:32:11.736Z,734.75
2017-01-27T00:33:11.724Z,734.73
2017-01-27T00:34:11.707Z,734.79
2017-01-27T00:35:11.688Z,734.8
2017-01-27T00:36:11.666Z,734.8
2017-01-27T00:37:11.649Z,734.79
2017-01-27T00:38:11.634Z,734.84
2017-01-27T00:39:11.613Z,734.8
2017-01-27T00:40:11.600Z,734.79
2017-01-27T00:41:11.578Z,734.81
2017-01-27T00:42:11.562Z,734.78
2017-01-27T00:43:11.544Z,734.82
2017-01-27T00:44:11.528Z,734.84
2017-01-27T00:45:11.509Z,734.8
2017-01-27T00:46:11.492Z,734.85
2017-01-27T00:47:11.473Z,734.86
2017-01-27T00:48:11.454Z,734.85
2017-01-27T00:49:11.432Z,734.84
2017-01-27T00:50:11.419Z,734.89
2017-01-27T00:51:11.397Z,734.89
2017-01-27T00:52:11.383Z,734.88
2017-01-27T00:53:11.365Z,734.9
2017-01-27T00:54:11.347Z,734.91
2017-01-27T00:55:11.326Z,734.9
2017-01-27T00:56:11.312Z,734.92
2017-01-27T00:57:11.294Z,734.88
2017-01-27T00:58:11.275Z,734.87
2017-01-27T00:59:11.258Z,734.84
2017-01-27T01:00:11.237Z,734.87
2017-01-27T01:01:11.220Z,734.86
2017-01-27T01:02:11.205Z,734.85
2017-01-27T01:03:11.189Z,734.82
2017-01-27T01:04:11.168Z,734.85
2017-01-27T01:05:11.150Z,734.81
2017-01-27T01:06:11.132Z,734.85
2017-01-27T01:07:11.115Z,734.8
2017-01-27T01:08:11.100Z,734.86
2017-01-27T01:09:11.078Z,734.79
2017-01-27T01:10:11.060Z,734.8
2017-01-27T01:11:11.046Z,734.81
2017-01-27T01:12:11.023Z,734.83
2017-01-27T01:13:11.009Z,734.86
2017-01-27T01:14:10.989Z,734.84
2017-01-27T01:15:10.976Z,734.84
2017-01-27T01:16:10.957Z,734.82
2017-01-27T01:17:10.936Z,734.84
2017-01-27T01:18:10.922Z,734.85
2017-01-27T01:19:10.904Z,734.83
2017-01-27T01:20:10.883Z,734.87
2017-01-27T01:21:10.868Z,734.84
2017-01-27T01:22:10.851Z,734.83
2017-01-27T01:23:10.829Z,734.83
2017-01-27T01:24:10.811Z,734.82
2017-01-27T01:25:10.792Z,734.81
2017-01-27T01:26:10.775Z,734.85
2017-01-27T01:27:10.756Z,734.86
2017-01-27T01:28:10.739Z,734.88
2017-01-27T01:29:10.721Z,734.86
2017-01-27T01:30:10.704Z,734.88
2017-01-27T01:31:10.688Z,734.89
2017-01-27T01:32:10.667Z,734.91
2017-01-27T01:33:10.653Z,734.89
2017-01-27T01:34:10.634Z,734.92
2017-01-27T01:35:10.614Z,734.88
2017-01-27T01:36:10.595Z,734.84
2017-01-27T01:37:10.577Z,734.86
2017-01-27T01:38:10.558Z,734.83
2017-01-27T01:39:10.545Z,734.82
2017-01-27T01:40:10.524Z,734.88
2017-01-27T01:41:10.506Z,734.88
2017-01-27T01:42:10.491Z,734.84
2017-01-27T01:43:10.475Z,734.85
2017-01-27T01:44:10.457Z,734.85
2017-01-27T01:45:10.435Z,734.8
2017-01-27T01:46:10.421Z,734.84
2017-01-27T01:47:10.404Z,734.84
2017-01-27T01:48:10.387Z,734.83
2017-01-27T01:49:10.365Z,734.82
2017-01-27T01:50:10.349Z,734.84
2017-01-27T01:51:10.334Z,734.79
2017-01-27T01:52:10.317Z,734.8
2017-01-27T01:53:10.298Z,734.78
2017-01-27T01:54:10.281Z,734.79
2017-01-27T01:55:10.260Z,734.78
2017-01-27T01:56:10.242Z,734.83
2017-01-27T01:57:10.228Z,734.84
2017-01-27T01:58:10.212Z,734.85
2017-01-27T01:59:10.191Z,734.8
2017-01-27T02:00:10.178Z,734.83
2017-01-27T02:01:10.158Z,734.85
2017-01-27T02:02:10.141Z,734.8
2017-01-27T02:03:10.124Z,734.81
2017-01-27T02:04:10.106Z,734.77
2017-01-27T02:05:10.086Z,734.74
2017-01-27T02:06:10.072Z,734.74
2017-01-27T02:07:10.053Z,734.76
2017-01-27T02:08:10.040Z,734.75
2017-01-27T02:09:10.018Z,734.76
2017-01-27T02:10:10.002Z,734.74
2017-01-27T02:11:09.979Z,734.77
2017-01-27T02:12:09.962Z,734.77
2017-01-27T02:13:09.947Z,734.79
2017-01-27T02:14:09.927Z,734.75
2017-01-27T02:15:09.912Z,734.72
2017-01-27T02:16:09.896Z,734.73
2017-01-27T02:17:09.878Z,734.73
2017-01-27T02:18:09.857Z,734.74
2017-01-27T02:19:09.840Z,734.72
2017-01-27T02:20:09.826Z,734.76
2017-01-27T02:21:09.809Z,734.72
2017-01-27T02:22:09.788Z,734.74
2017-01-27T02:23:09.771Z,734.72
2017-01-27T02:24:09.754Z,734.71
2017-01-27T02:25:09.735Z,734.72
2017-01-27T02:26:09.721Z,734.77
2017-01-27T02:27:09.705Z,734.74
2017-01-27T02:28:09.685Z,734.73
2017-01-27T02:29:09.666Z,734.69
2017-01-27T02:30:09.650Z,734.73
2017-01-27T02:31:09.635Z,734.72
2017-01-27T02:32:09.618Z,734.71
2017-01-27T02:33:09.597Z,734.7
2017-01-27T02:34:09.581Z,734.7
2017-01-27T02:35:09.565Z,734.7
2017-01-27T02:36:09.546Z,734.68
2017-01-27T02:37:09.529Z,734.69
2017-01-27T02:38:09.515Z,734.67
2017-01-27T02:39:09.495Z,734.67
2017-01-27T02:40:09.481Z,734.66
2017-01-27T02:41:09.464Z,734.63
2017-01-27T02:42:09.442Z,734.65
2017-01-27T02:43:09.425Z,734.66
2017-01-27T02:44:09.411Z,734.65
2017-01-27T02:45:09.391Z,734.65
2017-01-27T02:46:09.373Z,734.67
2017-01-27T02:47:09.354Z,734.6
2017-01-27T02:48:09.337Z,734.65
2017-01-27T02:49:09.323Z,734.65
2017-01-27T02:50:09.307Z,734.58
2017-01-27T02:51:09.288Z,734.61
2017-01-27T02:52:09.266Z,734.66
2017-01-27T02:53:09.251Z,734.6
2017-01-27T02:54:09.233Z,734.62
2017-01-27T02:55:09.219Z,734.59
2017-01-27T02:56:09.202Z,734.58
2017-01-27T02:57:09.181Z,734.61
2017-01-27T02:58:09.166Z,734.7
2017-01-27T02:59:09.147Z,734.63
2017-01-27T03:00:09.130Z,734.6
2017-01-27T03:01:09.115Z,734.62
2017-01-27T03:02:09.097Z,734.59
2017-01-27T03:03:09.081Z,734.61
2017-01-27T03:04:09.063Z,734.65
2017-01-27T03:05:09.045Z,734.65
2017-01-27T03:06:09.026Z,734.64
2017-01-27T03:07:09.012Z,734.63
2017-01-27T03:08:08.992Z,734.65
2017-01-27T03:09:08.973Z,734.63
2017-01-27T03:10:08.960Z,734.62
2017-01-27T03:11:08.944Z,734.66
2017-01-27T03:12:08.924Z,734.66
2017-01-27T03:13:08.909Z,734.69
2017-01-27T03:14:08.889Z,734.65
2017-01-27T03:15:08.874Z,734.63
2017-01-27T03:16:08.858Z,734.65
2017-01-27T03:17:08.837Z,734.65
2017-01-27T03:18:08.819Z,734.64
2017-01-27T03:19:08.803Z,734.67
2017-01-27T03:20:08.787Z,734.6
2017-01-27T03:21:08.771Z,734.59
2017-01-27T03:22:08.752Z,734.64
2017-01-27T03:23:08.732Z,734.62
2017-01-27T03:24:08.719Z,734.65
2017-01-27T03:25:08.701Z,734.65
2017-01-27T03:26:08.682Z,734.63
2017-01-27T03:27:08.664Z,734.65
2017-01-27T03:28:08.647Z,734.64
2017-01-27T03:29:08.629Z,734.63
2017-01-27T03:30:08.611Z,734.58
2017-01-27T03:31:08.597Z,734.58
2017-01-27T03:32:08.582Z,734.61
2017-01-27T03:33:08.565Z,734.6
2017-01-27T03:34:08.542Z,734.58
2017-01-27T03:35:08.525Z,734.57
2017-01-27T03:36:08.512Z,734.6
2017-01-27T03:37:08.492Z,734.62
2017-01-27T03:38:08.477Z,734.58
2017-01-27T03:39:08.459Z,734.55
2017-01-27T03:40:08.445Z,734.57
2017-01-27T03:41:08.428Z,734.6
2017-01-27T03:42:08.407Z,734.57
2017-01-27T03:43:08.390Z,734.56
2017-01-27T03:44:08.372Z,734.56
2017-01-27T03:45:08.356Z,734.62
2017-01-27T03:46:08.342Z,734.63
2017-01-27T03:47:08.321Z,734.63
2017-01-27T03:48:08.306Z,734.62
2017-01-27T03:49:08.286Z,734.58
2017-01-27T03:50:08.274Z,734.56
2017-01-27T03:51:08.256Z,734.59
2017-01-27T03:52:08.238Z,734.58
2017-01-27T03:53:08.217Z,734.58
2017-01-27T03:54:08.200Z,734.58
2017-01-27T03:55:08.183Z,734.63
2017-01-27T03:56:08.171Z,734.63
2017-01-27T03:57:08.159Z,734.6
2017-01-27T03:58:08.130Z,734.59
2017-01-27T03:59:08.113Z,734.57
2017-01-27T04:00:08.097Z,734.56
2017-01-27T04:01:08.081Z,734.55
2017-01-27T04:02:08.064Z,734.58
2017-01-27T04:03:08.050Z,734.57
2017-01-27T04:04:08.033Z,734.56
2017-01-27T04:05:08.012Z,734.56
2017-01-27T04:06:07.996Z,734.56
2017-01-27T04:07:07.979Z,734.55
2017-01-27T04:08:07.966Z,734.52
2017-01-27T04:09:07.948Z,734.48
2017-01-27T04:10:07.930Z,734.51
2017-01-27T04:11:07.913Z,734.51
2017-01-27T04:12:07.893Z,734.48
2017-01-27T04:13:07.876Z,734.46
2017-01-27T04:14:07.862Z,734.48
2017-01-27T04:15:07.845Z,734.49
2017-01-27T04:16:07.828Z,734.52
2017-01-27T04:17:07.808Z,734.54
2017-01-27T04:18:07.796Z,734.53
2017-01-27T04:19:07.777Z,734.54
2017-01-27T04:20:07.757Z,734.54
2017-01-27T04:21:07.745Z,734.52
2017-01-27T04:22:07.726Z,734.52
2017-01-27T04:23:07.709Z,734.53
2017-01-27T04:24:07.689Z,734.53
2017-01-27T04:25:07.675Z,734.54
2017-01-27T04:26:07.655Z,734.51
2017-01-27T04:27:07.637Z,734.53
2017-01-27T04:28:07.656Z,734.54
2017-01-27T04:29:07.604Z,734.52
2017-01-27T04:30:07.589Z,734.47
2017-01-27T04:31:07.569Z,734.51
2017-01-27T04:32:07.556Z,734.5
2017-01-27T04:33:07.535Z,734.48
2017-01-27T04:34:07.520Z,734.47
2017-01-27T04:35:07.503Z,734.47
2017-01-27T04:36:07.496Z,734.45
2017-01-27T04:37:07.468Z,734.44
2017-01-27T04:38:07.449Z,734.41
2017-01-27T04:39:07.435Z,734.43
2017-01-27T04:40:07.417Z,734.42
2017-01-27T04:41:07.395Z,734.45
2017-01-27T04:42:07.377Z,734.49
2017-01-27T04:43:07.365Z,734.47
2017-01-27T04:44:07.346Z,734.45
2017-01-27T04:45:07.326Z,734.43
2017-01-27T04:46:07.311Z,734.46
2017-01-27T04:47:07.294Z,734.43
2017-01-27T04:48:07.273Z,734.46
2017-01-27T04:49:07.258Z,734.44
2017-01-27T04:50:07.239Z,734.43
2017-01-27T04:51:07.221Z,734.43
2017-01-27T04:52:07.204Z,734.48
2017-01-27T04:53:07.188Z,734.46
2017-01-27T04:54:07.167Z,734.43
2017-01-27T04:55:07.153Z,734.43
2017-01-27T04:56:07.136Z,734.45
2017-01-27T04:57:07.117Z,734.46
2017-01-27T04:58:07.100Z,734.46
2017-01-27T04:59:07.079Z,734.48
2017-01-27T05:00:07.062Z,734.48
2017-01-27T05:01:07.048Z,734.46
2017-01-27T05:02:07.031Z,734.49
2017-01-27T05:03:07.012Z,734.47
2017-01-27T05:04:06.995Z,734.5
2017-01-27T05:05:06.974Z,734.49
2017-01-27T05:06:06.955Z,734.51
2017-01-27T05:07:06.941Z,734.47
2017-01-27T05:08:06.922Z,734.54
2017-01-27T05:09:06.905Z,734.52
2017-01-27T05:10:06.889Z,734.5
2017-01-27T05:11:06.873Z,734.54
2017-01-27T05:12:06.852Z,734.51
2017-01-27T05:13:06.838Z,734.53
2017-01-27T05:14:06.820Z,734.57
2017-01-27T05:15:06.801Z,734.57
2017-01-27T05:16:06.784Z,734.5
2017-01-27T05:17:06.769Z,734.55
2017-01-27T05:18:06.753Z,734.57
2017-01-27T05:19:06.732Z,734.59
2017-01-27T05:20:06.717Z,734.6
2017-01-27T05:21:06.699Z,734.59
2017-01-27T05:22:06.681Z,734.62
2017-01-27T05:23:06.663Z,734.63
2017-01-27T05:24:06.646Z,734.63
2017-01-27T05:25:06.631Z,734.64
2017-01-27T05:26:06.615Z,734.64
2017-01-27T05:27:06.597Z,734.71
2017-01-27T05:28:06.581Z,734.68
2017-01-27T05:29:06.564Z,734.68
2017-01-27T05:30:06.544Z,734.69
2017-01-27T05:31:06.528Z,734.71
2017-01-27T05:32:06.511Z,734.72
2017-01-27T05:33:06.493Z,734.72
2017-01-27T05:34:06.480Z,734.69
2017-01-27T05:35:06.459Z,734.73
2017-01-27T05:36:06.438Z,734.74
2017-01-27T05:37:06.425Z,734.69
2017-01-27T05:38:06.411Z,734.66
2017-01-27T05:39:06.387Z,734.64
2017-01-27T05:40:06.372Z,734.7
2017-01-27T05:41:06.352Z,734.7
2017-01-27T05:42:06.335Z,734.7
2017-01-27T05:43:06.319Z,734.72
2017-01-27T05:44:06.302Z,734.74
2017-01-27T05:45:06.284Z,734.72
2017-01-27T05:46:06.268Z,734.73
2017-01-27T05:47:06.246Z,734.71
2017-01-27T05:48:06.233Z,734.75
2017-01-27T05:49:06.215Z,734.74
2017-01-27T05:50:06.194Z,734.72
2017-01-27T05:51:06.179Z,734.73
2017-01-27T05:52:06.159Z,734.73
2017-01-27T05:53:06.144Z,734.8
2017-01-27T05:54:06.121Z,734.78
2017-01-27T05:55:06.108Z,734.78
2017-01-27T05:56:06.092Z,734.79
2017-01-27T05:57:06.074Z,734.8
2017-01-27T05:58:06.055Z,734.83
2017-01-27T05:59:06.041Z,734.79
2017-01-27T06:00:06.022Z,734.82
2017-01-27T06:01:06.000Z,734.79
2017-01-27T06:02:05.981Z,734.79
2017-01-27T06:03:05.968Z,734.8
2017-01-27T06:04:05.949Z,734.77
2017-01-27T06:05:05.933Z,734.78
2017-01-27T06:06:05.914Z,734.81
2017-01-27T06:07:05.899Z,734.83
2017-01-27T06:08:05.877Z,734.84
2017-01-27T06:09:05.864Z,734.86
2017-01-27T06:10:05.847Z,734.86
2017-01-27T06:11:05.826Z,734.85
2017-01-27T06:12:05.807Z,734.88
2017-01-27T06:13:05.792Z,734.89
2017-01-27T06:14:05.773Z,734.86
2017-01-27T06:15:05.756Z,734.88
2017-01-27T06:16:05.741Z,734.88
2017-01-27T06:17:05.720Z,734.86
2017-01-27T06:18:05.707Z,734.9
2017-01-27T06:19:05.685Z,734.92
2017-01-27T06:20:05.672Z,734.94
2017-01-27T06:21:05.653Z,734.93
2017-01-27T06:22:05.641Z,734.92
2017-01-27T06:23:05.614Z,734.95
2017-01-27T06:24:05.597Z,734.93
2017-01-27T06:25:05.582Z,734.93
2017-01-27T06:26:05.562Z,734.96
2017-01-27T06:27:05.544Z,734.99
2017-01-27T06:28:05.526Z,734.93
2017-01-27T06:29:05.511Z,734.95
2017-01-27T06:30:05.488Z,734.97
2017-01-27T06:31:05.474Z,734.98
2017-01-27T06:32:05.455Z,734.96
2017-01-27T06:33:05.438Z,735
2017-01-27T06:34:05.420Z,734.99
2017-01-27T06:35:05.404Z,734.96
2017-01-27T06:36:05.384Z,735.02
2017-01-27T06:37:05.369Z,735.04
2017-01-27T06:38:05.347Z,735
2017-01-27T06:39:05.330Z,735
2017-01-27T06:40:05.314Z,734.99
2017-01-27T06:41:05.296Z,735.01
2017-01-27T06:42:05.280Z,735.05
2017-01-27T06:43:05.258Z,735.07
2017-01-27T06:44:05.241Z,735.07
2017-01-27T06:45:05.221Z,735.03
2017-01-27T06:46:05.211Z,735.06
2017-01-27T06:47:05.188Z,735.06
2017-01-27T06:48:05.172Z,735.06
2017-01-27T06:49:05.152Z,735.05
2017-01-27T06:50:05.139Z,735.08
2017-01-27T06:51:05.121Z,735.11
2017-01-27T06:52:05.099Z,735.18
2017-01-27T06:53:05.086Z,735.13
2017-01-27T06:54:05.068Z,735.16
2017-01-27T06:55:05.054Z,735.16
2017-01-27T06:56:05.031Z,735.19
2017-01-27T06:57:05.011Z,735.17
2017-01-27T06:58:04.996Z,735.16
2017-01-27T06:59:04.976Z,735.17
2017-01-27T07:00:04.962Z,735.14
2017-01-27T07:01:04.947Z,735.15
2017-01-27T07:02:04.927Z,735.19
2017-01-27T07:03:04.907Z,735.17
2017-01-27T07:04:04.890Z,735.17
2017-01-27T07:05:04.874Z,735.19
2017-01-27T07:06:04.857Z,735.19
2017-01-27T07:07:04.846Z,735.23
2017-01-27T07:08:04.823Z,735.22
2017-01-27T07:09:04.809Z,735.26
2017-01-27T07:10:04.789Z,735.28
2017-01-27T07:11:04.777Z,735.25
2017-01-27T07:12:04.758Z,735.24
2017-01-27T07:13:04.740Z,735.23
2017-01-27T07:14:04.723Z,735.28
2017-01-27T07:15:04.705Z,735.23
2017-01-27T07:16:04.689Z,735.3
2017-01-27T07:17:04.675Z,735.3
2017-01-27T07:18:04.659Z,735.3
2017-01-27T07:19:04.639Z,735.3
2017-01-27T07:20:04.626Z,735.35
2017-01-27T07:21:04.606Z,735.31
2017-01-27T07:22:04.591Z,735.27
2017-01-27T07:23:04.574Z,735.3
2017-01-27T07:24:04.561Z,735.32
2017-01-27T07:25:04.541Z,735.3
2017-01-27T07:26:04.527Z,735.35
2017-01-27T07:27:04.513Z,735.36
2017-01-27T07:28:04.498Z,735.35
2017-01-27T07:29:04.479Z,735.32
2017-01-27T07:30:04.467Z,735.33
2017-01-27T07:31:04.446Z,735.31
2017-01-27T07:32:04.436Z,735.35
2017-01-27T07:33:04.422Z,735.4
2017-01-27T07:34:04.411Z,735.35
2017-01-27T07:35:04.388Z,735.34
2017-01-27T07:36:04.376Z,735.34
2017-01-27T07:37:04.362Z,735.34
2017-01-27T07:38:04.351Z,735.37
2017-01-27T07:39:04.329Z,735.34
2017-01-27T07:40:04.317Z,735.39
2017-01-27T07:41:04.304Z,735.44
2017-01-27T07:42:04.285Z,735.4
2017-01-27T07:43:04.271Z,735.4
2017-01-27T07:44:04.262Z,735.4
2017-01-27T07:45:04.248Z,735.41
2017-01-27T07:46:04.232Z,735.41
2017-01-27T07:47:04.220Z,735.42
2017-01-27T07:48:04.204Z,735.48
2017-01-27T07:49:04.190Z,735.41
2017-01-27T07:50:04.177Z,735.45
2017-01-27T07:51:04.167Z,735.45
2017-01-27T07:52:04.154Z,735.45
2017-01-27T07:53:04.137Z,735.47
2017-01-27T07:54:04.134Z,735.47
2017-01-27T07:55:04.119Z,735.41
2017-01-27T07:56:04.102Z,735.43
2017-01-27T07:57:04.092Z,735.43
2017-01-27T07:58:04.077Z,735.42
2017-01-27T07:59:04.071Z,735.45
2017-01-27T08:00:04.059Z,735.45
2017-01-27T08:01:04.038Z,735.43
2017-01-27T08:02:04.022Z,735.41
2017-01-27T08:03:04.012Z,735.41
2017-01-27T08:04:03.997Z,735.45
2017-01-27T08:05:03.984Z,735.47
2017-01-27T08:06:03.970Z,735.45
2017-01-27T08:07:03.959Z,735.46
2017-01-27T08:08:03.948Z,735.47
2017-01-27T08:09:03.935Z,735.51
2017-01-27T08:10:03.926Z,735.52
2017-01-27T08:11:03.914Z,735.5
2017-01-27T08:12:03.900Z,735.54
2017-01-27T08:13:03.888Z,735.52
2017-01-27T08:14:03.882Z,735.53
2017-01-27T08:15:03.867Z,735.53
2017-01-27T08:16:03.853Z,735.52
2017-01-27T08:17:03.845Z,735.57
2017-01-27T08:18:03.835Z,735.57
2017-01-27T08:19:03.821Z,735.57
2017-01-27T08:20:03.808Z,735.56
2017-01-27T08:21:03.797Z,735.52
2017-01-27T08:22:03.790Z,735.57
2017-01-27T08:23:03.780Z,735.59
2017-01-27T08:24:03.766Z,735.62
2017-01-27T08:25:03.755Z,735.65
2017-01-27T08:26:03.748Z,735.63
2017-01-27T08:27:03.734Z,735.61
2017-01-27T08:28:03.726Z,735.61
2017-01-27T08:29:03.714Z,735.6
2017-01-27T08:30:03.710Z,735.61
2017-01-27T08:31:03.690Z,735.59
2017-01-27T08:32:03.683Z,735.58
2017-01-27T08:33:03.669Z,735.62
2017-01-27T08:34:03.661Z,735.6
2017-01-27T08:35:03.652Z,735.61
2017-01-27T08:36:03.638Z,735.55
2017-01-27T08:37:03.631Z,735.5
2017-01-27T08:38:03.620Z,735.55
2017-01-27T08:39:03.608Z,735.52
2017-01-27T08:40:03.598Z,735.54
2017-01-27T08:41:03.586Z,735.53
2017-01-27T08:42:03.574Z,735.56
2017-01-27T08:43:03.566Z,735.51
2017-01-27T08:44:03.562Z,735.52
2017-01-27T08:45:03.545Z,735.54
2017-01-27T08:46:03.536Z,735.54
2017-01-27T08:47:03.527Z,735.57
2017-01-27T08:48:03.513Z,735.57
2017-01-27T08:49:03.505Z,735.62
2017-01-27T08:50:03.492Z,735.56
2017-01-27T08:51:03.485Z,735.59
2017-01-27T08:52:03.471Z,735.58
2017-01-27T08:53:03.460Z,735.61
2017-01-27T08:54:03.452Z,735.61
2017-01-27T08:55:03.442Z,735.64
2017-01-27T08:56:03.431Z,735.59
2017-01-27T08:57:03.418Z,735.61
2017-01-27T08:58:03.408Z,735.6
2017-01-27T08:59:03.400Z,735.6
2017-01-27T09:00:03.385Z,735.64
2017-01-27T09:01:03.375Z,735.64
2017-01-27T09:02:03.367Z,735.65
2017-01-27T09:03:03.357Z,735.67
2017-01-27T09:04:03.343Z,735.68
2017-01-27T09:05:03.336Z,735.67
2017-01-27T09:06:03.324Z,735.67
2017-01-27T09:07:03.312Z,735.62
2017-01-27T09:08:03.305Z,735.69
2017-01-27T09:09:03.291Z,735.71
2017-01-27T09:10:03.284Z,735.67
2017-01-27T09:11:03.273Z,735.71
2017-01-27T09:12:03.261Z,735.7
2017-01-27T09:13:03.253Z,735.74
2017-01-27T09:14:03.247Z,735.74
2017-01-27T09:15:03.234Z,735.73
2017-01-27T09:16:03.226Z,735.77
2017-01-27T09:17:03.213Z,735.72
2017-01-27T09:18:03.204Z,735.76
2017-01-27T09:19:03.196Z,735.76
2017-01-27T09:20:03.195Z,735.75
2017-01-27T09:21:03.177Z,735.77
2017-01-27T09:22:03.172Z,735.8
2017-01-27T09:23:03.164Z,735.8
2017-01-27T09:24:03.154Z,735.79
2017-01-27T09:25:03.147Z,735.76
2017-01-27T09:26:03.137Z,735.76
2017-01-27T09:27:03.130Z,735.79
2017-01-27T09:28:03.117Z,735.78
2017-01-27T09:29:03.109Z,735.8
2017-01-27T09:30:03.153Z,735.81
2017-01-27T09:31:03.092Z,735.8
2017-01-27T09:32:03.112Z,735.86
2017-01-27T09:33:03.080Z,735.85
2017-01-27T09:34:03.066Z,735.84
2017-01-27T09:35:03.058Z,735.87
2017-01-27T09:36:03.049Z,735.85
2017-01-27T09:37:03.042Z,735.81
2017-01-27T09:38:03.034Z,735.84
2017-01-27T09:39:03.025Z,735.86
2017-01-27T09:40:03.017Z,735.88
2017-01-27T09:41:03.012Z,735.82
2017-01-27T09:42:03.001Z,735.84
2017-01-27T09:43:02.995Z,735.87
2017-01-27T09:44:02.986Z,735.89
2017-01-27T09:45:02.983Z,735.86
2017-01-27T09:46:02.975Z,735.83
2017-01-27T09:47:02.963Z,735.84
2017-01-27T09:48:02.957Z,735.88
2017-01-27T09:49:02.952Z,735.86
2017-01-27T09:50:02.943Z,735.86
2017-01-27T09:51:02.937Z,735.86
2017-01-27T09:52:02.930Z,735.85
2017-01-27T09:53:02.923Z,735.87
2017-01-27T09:54:02.916Z,735.87
2017-01-27T09:55:02.906Z,735.9
2017-01-27T09:56:02.900Z,735.92
2017-01-27T09:57:02.892Z,735.91
2017-01-27T09:58:02.884Z,735.88
2017-01-27T09:59:02.881Z,735.87
2017-01-27T10:00:02.876Z,735.85
2017-01-27T10:01:02.869Z,735.92
2017-01-27T10:02:02.861Z,735.9
2017-01-27T10:03:02.851Z,735.88
2017-01-27T10:04:02.847Z,735.88
2017-01-27T10:05:02.836Z,735.89
2017-01-27T10:06:02.833Z,735.91
2017-01-27T10:07:02.824Z,735.93
2017-01-27T10:08:02.817Z,735.9
2017-01-27T10:09:02.810Z,735.89
2017-01-27T10:10:02.803Z,735.87
2017-01-27T10:11:02.800Z,735.84
2017-01-27T10:12:02.789Z,735.89
2017-01-27T10:13:02.785Z,735.88
2017-01-27T10:14:02.778Z,735.83
2017-01-27T10:15:02.772Z,735.87
2017-01-27T10:16:02.761Z,735.83
2017-01-27T10:17:02.758Z,735.85
2017-01-27T10:18:02.751Z,735.87
2017-01-27T10:19:02.744Z,735.86
2017-01-27T10:20:02.741Z,735.82
2017-01-27T10:21:02.728Z,735.84
2017-01-27T10:22:02.720Z,735.84
2017-01-27T10:23:02.713Z,735.8
2017-01-27T10:24:02.704Z,735.83
2017-01-27T10:25:02.696Z,735.84
2017-01-27T10:26:02.698Z,735.8
2017-01-27T10:27:02.683Z,735.8
2017-01-27T10:28:02.678Z,735.8
2017-01-27T10:29:02.667Z,735.76
2017-01-27T10:30:02.663Z,735.75
2017-01-27T10:31:02.652Z,735.73
2017-01-27T10:32:02.647Z,735.72
2017-01-27T10:33:02.640Z,735.75
2017-01-27T10:34:02.633Z,735.66
2017-01-27T10:35:02.621Z,735.7
2017-01-27T10:36:02.620Z,735.67
2017-01-27T10:37:02.605Z,735.65
2017-01-27T10:38:02.597Z,735.62
2017-01-27T10:39:02.589Z,735.7
2017-01-27T10:40:02.585Z,735.72
2017-01-27T10:41:02.572Z,735.62
2017-01-27T10:42:02.569Z,735.54
2017-01-27T10:43:02.561Z,735.58
2017-01-27T10:44:02.552Z,735.51
2017-01-27T10:45:02.544Z,735.55
2017-01-27T10:46:02.533Z,735.64
2017-01-27T10:47:02.522Z,735.57
2017-01-27T10:48:02.514Z,735.51
2017-01-27T10:49:02.506Z,735.56
2017-01-27T10:50:02.496Z,735.5
2017-01-27T10:51:02.490Z,735.49
2017-01-27T10:52:02.480Z,735.45
2017-01-27T10:53:02.471Z,735.45
2017-01-27T10:54:02.458Z,735.44
2017-01-27T10:55:02.455Z,735.41
2017-01-27T10:56:02.439Z,735.36
2017-01-27T10:57:02.429Z,735.41
2017-01-27T10:58:02.422Z,735.38
2017-01-27T10:59:02.410Z,735.42
2017-01-27T11:00:02.403Z,735.37
2017-01-27T11:01:02.390Z,735.38
2017-01-27T11:02:02.384Z,735.33
2017-01-27T11:03:02.374Z,735.31
2017-01-27T11:04:02.363Z,735.35
2017-01-27T11:05:02.354Z,735.33
2017-01-27T11:06:02.341Z,735.35
2017-01-27T11:07:02.335Z,735.27
2017-01-27T11:08:02.324Z,735.29
2017-01-27T11:09:02.314Z,735.26
2017-01-27T11:10:02.301Z,735.21
2017-01-27T11:11:02.294Z,735.25
2017-01-27T11:12:02.280Z,735.26
2017-01-27T11:13:02.270Z,735.2
2017-01-27T11:14:02.260Z,735.2
2017-01-27T11:15:02.253Z,735.16
2017-01-27T11:16:02.243Z,735.17
2017-01-27T11:17:02.229Z,735.14
2017-01-27T11:18:02.223Z,735.11
2017-01-27T11:19:02.211Z,735.16
2017-01-27T11:20:02.205Z,735.09
2017-01-27T11:21:02.187Z,735.07
2017-01-27T11:22:02.179Z,735.08
2017-01-27T11:23:02.170Z,735.1
2017-01-27T11:24:02.168Z,735.05
2017-01-27T11:25:02.150Z,735.07
2017-01-27T11:26:02.140Z,735.11
2017-01-27T11:27:02.124Z,735.02
2017-01-27T11:28:02.117Z,735.04
2017-01-27T11:29:02.103Z,735
2017-01-27T11:30:02.093Z,735.01
2017-01-27T11:31:02.082Z,735.01
2017-01-27T11:32:02.068Z,735.07
2017-01-27T11:33:02.059Z,734.99
2017-01-27T11:34:02.054Z,735.05
2017-01-27T11:35:02.037Z,735.05
2017-01-27T11:36:02.021Z,734.99
2017-01-27T11:37:02.008Z,735
2017-01-27T11:38:01.995Z,734.91
2017-01-27T11:39:01.979Z,734.99
2017-01-27T11:40:01.967Z,734.98
2017-01-27T11:41:01.958Z,735.03
2017-01-27T11:42:01.945Z,735.02
2017-01-27T11:43:01.930Z,734.94
2017-01-27T11:44:01.913Z,734.89
2017-01-27T11:45:01.904Z,734.88
2017-01-27T11:46:01.888Z,734.9
2017-01-27T11:47:01.878Z,734.9
2017-01-27T11:48:01.865Z,734.9
2017-01-27T11:49:01.855Z,734.84
2017-01-27T11:50:01.836Z,734.9
2017-01-27T11:51:01.826Z,734.82
2017-01-27T11:52:01.812Z,734.93
2017-01-27T11:53:01.799Z,734.91
2017-01-27T11:54:01.784Z,734.85
2017-01-27T11:55:01.776Z,734.87
2017-01-27T11:56:01.766Z,734.87
2017-01-27T11:57:01.746Z,734.89
2017-01-27T11:58:01.736Z,734.84
2017-01-27T11:59:01.726Z,734.72
2017-01-27T12:00:01.713Z,734.78
2017-01-27T12:01:01.701Z,734.8
2017-01-27T12:02:01.689Z,734.78
2017-01-27T12:03:01.689Z,734.75
2017-01-27T12:04:01.660Z,734.68
2017-01-27T12:05:01.649Z,734.73
2017-01-27T12:06:01.636Z,734.77
2017-01-27T12:07:01.630Z,734.77
2017-01-27T12:08:01.616Z,734.72
2017-01-27T12:09:01.605Z,734.72
2017-01-27T12:10:01.590Z,734.7
2017-01-27T12:11:01.581Z,734.69
2017-01-27T12:12:01.564Z,734.74
2017-01-27T12:13:01.557Z,734.7
2017-01-27T12:14:01.540Z,734.73
2017-01-27T12:15:01.532Z,734.59
2017-01-27T12:16:01.522Z,734.63
2017-01-27T12:17:01.509Z,734.65
2017-01-27T12:18:01.498Z,734.67
2017-01-27T12:19:01.486Z,734.62
2017-01-27T12:20:01.472Z,734.64
2017-01-27T12:21:01.459Z,734.59
2017-01-27T12:22:01.450Z,734.66
2017-01-27T12:23:01.435Z,734.56
2017-01-27T12:24:01.427Z,734.53
2017-01-27T12:25:01.414Z,734.59
2017-01-27T12:26:01.400Z,734.62
2017-01-27T12:27:01.389Z,734.61
2017-01-27T12:28:01.375Z,734.58
2017-01-27T12:29:01.367Z,734.5
2017-01-27T12:30:01.355Z,734.58
2017-01-27T12:31:01.340Z,734.56